Time;durP1;ratioP1;P1;durP2;ratioP2;P2;SDS_P1;SDS_P2;PMS_P1;PMS_P2;Temp;Humidity;BMP_temperature;BMP_pressure;BME280_temperature;BME280_humidity;BME280_pressure;Samples;Min_cycle;Max_cycle;Signal;HPM_P1;HPM_P2
2022/09/19 00:01:13;;;;;;;3.25;1.63;;;14.20;99.90;;;;;;5094236;28;20059;-81
2022/09/19 00:03:41;;;;;;;3.75;1.70;;;14.20;99.90;;;;;;5103140;28;20024;-81
2022/09/19 00:06:09;;;;;;;5.20;2.60;;;14.20;99.90;;;;;;5091770;28;20025;-81
2022/09/19 00:08:37;;;;;;;4.80;1.88;;;14.20;99.90;;;;;;5098532;28;20044;-81
2022/09/19 00:11:05;;;;;;;3.88;1.70;;;14.20;99.90;;;;;;5101700;28;20012;-81
2022/09/19 00:13:33;;;;;;;3.53;2.00;;;14.20;99.90;;;;;;5097629;28;20036;-80
2022/09/19 00:15:59;;;;;;;3.22;1.48;;;14.20;99.90;;;;;;5087335;28;20023;-80
2022/09/19 00:18:27;;;;;;;2.50;1.45;;;14.20;99.90;;;;;;5097246;28;20016;-80
2022/09/19 00:20:53;;;;;;;3.25;1.60;;;14.20;99.90;;;;;;5078748;28;20162;-82
2022/09/19 00:26:07;;;;;;;4.88;2.08;;;14.20;99.90;;;;;;5104690;28;20036;-80
2022/09/19 00:28:34;;;;;;;5.40;2.28;;;14.10;99.90;;;;;;5093351;28;20031;-81
2022/09/19 00:31:00;;;;;;;2.78;1.67;;;14.10;99.90;;;;;;5104000;28;20179;-81
2022/09/19 00:33:30;;;;;;;3.05;1.17;;;14.10;99.90;;;;;;5098174;28;20017;-81
2022/09/19 00:35:57;;;;;;;4.55;1.70;;;14.20;99.90;;;;;;5099855;28;20024;-81
2022/09/19 00:38:24;;;;;;;6.13;1.67;;;14.20;99.90;;;;;;5102717;28;20032;-81
2022/09/19 00:40:50;;;;;;;4.72;1.63;;;14.10;99.90;;;;;;5097911;28;20032;-81
2022/09/19 00:43:18;;;;;;;3.03;1.17;;;14.10;99.90;;;;;;5105463;28;20028;-81
2022/09/19 00:45:46;;;;;;;5.03;1.90;;;14.10;99.90;;;;;;5108750;28;20629;-81
2022/09/19 00:48:17;;;;;;;5.32;1.30;;;14.10;99.90;;;;;;5099299;28;20092;-81
2022/09/19 00:50:46;;;;;;;8.40;1.77;;;14.10;99.90;;;;;;5092650;28;20063;-81
2022/09/19 00:53:16;;;;;;;4.78;1.55;;;14.10;99.90;;;;;;5102622;28;20557;-81
2022/09/19 00:55:42;;;;;;;3.33;1.40;;;14.10;99.90;;;;;;5102180;28;20100;-81
2022/09/19 00:58:25;;;;;;;6.22;2.00;;;14.00;99.90;;;;;;5105120;28;20621;-80
2022/09/19 01:00:52;;;;;;;3.67;1.47;;;14.10;99.90;;;;;;5099841;28;20420;-81
2022/09/19 01:03:19;;;;;;;8.35;1.67;;;14.10;99.90;;;;;;5105540;28;20506;-81
2022/09/19 01:06:06;;;;;;;4.78;1.80;;;14.10;99.90;;;;;;5092909;28;20032;-81
2022/09/19 01:08:35;;;;;;;4.85;1.70;;;14.00;99.90;;;;;;5098419;28;20384;-81
2022/09/19 01:11:12;;;;;;;8.45;1.52;;;14.10;99.90;;;;;;5102653;28;20029;-80
2022/09/19 01:13:57;;;;;;;5.70;1.40;;;14.10;99.90;;;;;;5104863;28;20017;-80
2022/09/19 01:16:48;;;;;;;5.05;1.52;;;14.10;99.90;;;;;;5100416;28;20017;-81
2022/09/19 01:19:50;;;;;;;3.80;1.17;;;14.00;99.90;;;;;;5103100;28;20032;-81
2022/09/19 01:22:48;;;;;;;2.60;1.35;;;14.00;99.90;;;;;;5097497;28;20070;-81
2022/09/19 01:25:48;;;;;;;2.53;1.58;;;14.00;99.90;;;;;;5098846;28;20043;-82
2022/09/19 01:28:34;;;;;;;5.50;1.40;;;14.00;99.90;;;;;;5103189;28;20031;-81
2022/09/19 01:31:18;;;;;;;3.80;1.90;;;14.00;99.90;;;;;;5095176;28;20459;-81
2022/09/19 01:34:02;;;;;;;2.72;1.58;;;14.00;99.90;;;;;;5099042;28;20020;-80
2022/09/19 01:36:32;;;;;;;8.18;1.75;;;14.00;99.90;;;;;;5100806;28;20478;-80
2022/09/19 01:39:02;;;;;;;2.50;1.33;;;14.00;99.90;;;;;;5096575;28;20426;-80
2022/09/19 01:41:30;;;;;;;8.77;1.70;;;14.00;99.90;;;;;;5091706;28;20111;-82
2022/09/19 01:44:02;;;;;;;3.63;1.20;;;14.00;99.90;;;;;;5089905;28;20107;-82
2022/09/19 01:46:36;;;;;;;5.05;1.25;;;14.00;99.90;;;;;;5078959;28;20016;-82
2022/09/19 01:49:20;;;;;;;5.10;2.35;;;14.00;99.90;;;;;;5080756;28;20036;-82
2022/09/19 01:51:50;;;;;;;5.10;1.60;;;14.00;99.90;;;;;;5091227;28;20059;-82
2022/09/19 01:54:53;;;;;;;2.95;1.15;;;14.00;99.90;;;;;;5085330;28;20029;-81
2022/09/19 01:57:32;;;;;;;1.58;1.20;;;14.00;99.90;;;;;;5080882;28;20174;-82
2022/09/19 02:00:08;;;;;;;4.80;2.00;;;14.00;99.90;;;;;;5087759;28;20020;-82
2022/09/19 02:02:43;;;;;;;4.15;1.40;;;14.00;99.90;;;;;;5085970;28;20038;-82
2022/09/19 02:05:13;;;;;;;5.78;1.83;;;14.00;99.90;;;;;;5093633;28;20048;-82
2022/09/19 02:08:04;;;;;;;5.38;1.73;;;13.90;99.90;;;;;;5082765;28;20114;-83
2022/09/19 02:10:43;;;;;;;4.40;1.58;;;13.90;99.90;;;;;;5086134;28;20051;-81
2022/09/19 02:13:10;;;;;;;5.72;1.88;;;13.90;99.90;;;;;;5085403;28;20020;-81
2022/09/19 02:15:38;;;;;;;3.33;1.92;;;13.90;99.90;;;;;;5081521;28;20028;-82
2022/09/19 02:18:20;;;;;;;4.10;1.70;;;13.90;99.90;;;;;;5086453;28;20024;-82
2022/09/19 02:20:48;;;;;;;4.40;1.70;;;13.90;99.90;;;;;;5077966;28;20066;-82
2022/09/19 02:23:23;;;;;;;6.00;1.75;;;13.90;99.90;;;;;;5086271;28;20415;-81
2022/09/19 02:25:53;;;;;;;5.75;1.80;;;13.90;99.90;;;;;;5089911;28;20028;-82
2022/09/19 02:28:25;;;;;;;5.32;2.20;;;13.90;99.90;;;;;;5092004;28;20059;-82
2022/09/19 02:30:51;;;;;;;3.92;1.40;;;13.90;99.90;;;;;;5086214;28;20020;-81
2022/09/19 02:33:18;;;;;;;3.47;1.30;;;13.90;99.90;;;;;;5093449;28;20066;-81
2022/09/19 02:35:47;;;;;;;6.00;1.90;;;13.90;99.90;;;;;;5088597;28;20031;-81
2022/09/19 02:38:22;;;;;;;5.43;2.15;;;13.90;99.90;;;;;;5088327;28;20039;-80
2022/09/19 02:41:00;;;;;;;2.85;1.60;;;13.90;99.90;;;;;;5090740;28;20031;-81
2022/09/19 02:43:52;;;;;;;7.82;1.42;;;13.90;99.90;;;;;;5088647;28;20480;-80
2022/09/19 02:46:39;;;;;;;4.70;1.88;;;13.90;99.90;;;;;;5089944;28;20036;-81
2022/09/19 02:49:29;;;;;;;6.35;2.20;;;13.90;99.90;;;;;;5092382;28;20035;-81
2022/09/19 02:52:00;;;;;;;7.35;1.85;;;13.90;99.90;;;;;;5091360;28;20012;-81
2022/09/19 02:54:31;;;;;;;5.13;1.75;;;13.90;99.90;;;;;;5082988;28;20384;-81
2022/09/19 02:57:01;;;;;;;6.80;1.80;;;13.80;99.90;;;;;;5088915;28;20123;-81
2022/09/19 02:59:33;;;;;;;3.33;1.70;;;13.90;99.90;;;;;;5086136;28;20035;-81
2022/09/19 03:02:02;;;;;;;5.60;1.77;;;13.90;99.90;;;;;;5085154;28;20046;-81
2022/09/19 03:04:36;;;;;;;2.00;1.30;;;13.80;99.90;;;;;;5085816;28;20442;-80
2022/09/19 03:07:06;;;;;;;;;;;13.90;99.90;;;;;;5077992;28;20084;-81
2022/09/19 03:09:32;;;;;;;6.57;1.70;;;13.80;99.90;;;;;;5085824;28;20325;-80
2022/09/19 03:12:18;;;;;;;4.90;1.45;;;13.80;99.90;;;;;;5084848;28;20020;-80
2022/09/19 03:14:47;;;;;;;3.05;1.50;;;13.80;99.90;;;;;;5080585;28;20485;-82
2022/09/19 03:17:16;;;;;;;3.88;1.65;;;13.80;99.90;;;;;;5089245;28;20089;-81
2022/09/19 03:19:48;;;;;;;6.00;2.15;;;13.80;99.90;;;;;;5083635;28;20429;-81
2022/09/19 03:22:14;;;;;;;9.35;3.25;;;13.80;99.90;;;;;;5088046;28;20530;-81
2022/09/19 03:24:42;;;;;;;2.63;1.17;;;13.80;99.90;;;;;;5091089;28;20028;-81
2022/09/19 03:27:08;;;;;;;7.00;1.83;;;13.80;99.90;;;;;;5080710;28;20128;-81
2022/09/19 03:29:35;;;;;;;3.10;1.33;;;13.80;99.90;;;;;;5080417;28;20025;-82
2022/09/19 03:32:02;;;;;;;5.60;1.70;;;13.80;99.90;;;;;;5076555;28;20123;-82
2022/09/19 03:34:31;;;;;;;5.13;1.40;;;13.80;99.90;;;;;;5086307;28;20036;-82
2022/09/19 03:36:57;;;;;;;5.20;1.98;;;13.80;99.90;;;;;;5084171;28;20036;-80
2022/09/19 03:39:23;;;;;;;7.93;1.70;;;13.80;99.90;;;;;;5082071;28;20039;-82
2022/09/19 03:41:49;;;;;;;3.72;1.48;;;13.80;99.90;;;;;;5092476;28;20016;-81
2022/09/19 03:44:17;;;;;;;6.38;2.00;;;13.80;99.90;;;;;;5092408;28;20024;-80
2022/09/19 03:46:46;;;;;;;4.07;1.75;;;13.80;99.90;;;;;;5096504;28;20036;-80
2022/09/19 03:49:13;;;;;;;5.13;1.17;;;13.80;99.90;;;;;;5101277;28;20036;-80
2022/09/19 03:51:40;;;;;;;6.40;1.85;;;13.80;99.90;;;;;;5095804;28;20035;-80
2022/09/19 03:54:06;;;;;;;5.57;1.85;;;13.80;99.90;;;;;;5096684;28;20030;-80
2022/09/19 03:56:32;;;;;;;8.35;2.00;;;13.80;99.90;;;;;;5091377;28;20447;-81
2022/09/19 03:58:58;;;;;;;3.22;1.00;;;13.80;99.90;;;;;;5102591;28;20024;-81
2022/09/19 04:01:24;;;;;;;4.80;1.60;;;13.80;99.90;;;;;;5092788;28;20037;-81
2022/09/19 04:03:50;;;;;;;3.47;1.10;;;13.80;99.90;;;;;;5103170;28;20282;-81
2022/09/19 04:06:17;;;;;;;4.43;1.52;;;13.80;99.90;;;;;;5104853;28;20044;-81
2022/09/19 04:08:43;;;;;;;2.80;1.65;;;13.80;99.90;;;;;;5100159;28;20055;-81
2022/09/19 04:11:09;;;;;;;4.80;2.60;;;13.80;99.90;;;;;;5108893;28;20036;-81
2022/09/19 04:13:37;;;;;;;5.40;1.42;;;13.80;99.90;;;;;;5097757;28;20096;-81
2022/09/19 04:16:04;;;;;;;2.95;1.20;;;13.80;99.90;;;;;;5103185;28;20020;-81
2022/09/19 04:18:30;;;;;;;5.85;1.45;;;13.80;99.90;;;;;;5109767;28;20017;-81
2022/09/19 04:20:56;;;;;;;2.42;1.30;;;13.80;99.90;;;;;;5095073;28;20353;-80
2022/09/19 04:23:24;;;;;;;4.60;1.80;;;13.80;99.90;;;;;;5090075;28;20028;-81
2022/09/19 04:25:50;;;;;;;4.47;1.65;;;13.80;99.90;;;;;;5098994;28;20498;-80
2022/09/19 04:28:20;;;;;;;5.40;1.55;;;13.80;99.90;;;;;;5105481;28;20120;-80
2022/09/19 04:30:46;;;;;;;4.38;1.38;;;13.80;99.90;;;;;;5103827;28;20088;-81
2022/09/19 04:33:14;;;;;;;3.92;1.42;;;13.80;99.90;;;;;;5102478;28;20039;-81
2022/09/19 04:35:43;;;;;;;4.63;1.25;;;13.70;99.90;;;;;;5104880;28;20019;-81
2022/09/19 04:38:12;;;;;;;4.15;2.30;;;13.70;99.90;;;;;;5102574;28;20046;-80
2022/09/19 04:40:44;;;;;;;6.32;1.75;;;13.80;99.90;;;;;;5098051;28;20031;-81
2022/09/19 04:43:11;;;;;;;5.10;1.75;;;13.80;99.90;;;;;;5105391;28;20032;-81
2022/09/19 04:45:39;;;;;;;6.90;1.85;;;13.80;99.90;;;;;;5100293;28;20435;-81
2022/09/19 04:48:05;;;;;;;12.13;1.90;;;13.70;99.90;;;;;;5099870;28;20125;-81
2022/09/19 04:50:33;;;;;;;9.23;2.15;;;13.70;99.90;;;;;;5102177;28;20037;-81
2022/09/19 04:52:59;;;;;;;5.50;1.58;;;13.70;99.90;;;;;;5110829;28;20555;-81
2022/09/19 04:55:27;;;;;;;4.82;1.90;;;13.70;99.90;;;;;;5107008;28;20050;-82
2022/09/19 04:57:54;;;;;;;5.50;1.40;;;13.70;99.90;;;;;;5103957;28;20008;-81
2022/09/19 05:00:41;;;;;;;10.05;2.22;;;13.70;99.90;;;;;;5101557;28;20040;-80
2022/09/19 05:03:13;;;;;;;4.43;1.35;;;13.70;99.90;;;;;;5091680;28;20036;-80
2022/09/19 05:05:50;;;;;;;3.10;1.75;;;13.70;99.90;;;;;;5088117;28;20012;-80
2022/09/19 05:08:27;;;;;;;5.53;1.80;;;13.70;99.90;;;;;;5090231;28;20052;-80
2022/09/19 05:10:55;;;;;;;2.35;1.80;;;13.70;99.90;;;;;;5092503;28;20034;-80
2022/09/19 05:13:27;;;;;;;2.95;1.55;;;13.70;99.90;;;;;;5100219;28;20023;-80
2022/09/19 05:15:54;;;;;;;5.25;1.67;;;13.70;99.90;;;;;;5088463;28;20376;-80
2022/09/19 05:18:21;;;;;;;5.82;1.83;;;13.70;99.90;;;;;;5098083;28;20035;-81
2022/09/19 05:20:48;;;;;;;5.38;1.52;;;13.70;99.90;;;;;;5087053;28;20460;-80
2022/09/19 05:23:14;;;;;;;5.22;1.75;;;13.70;99.90;;;;;;5097284;28;20031;-80
2022/09/19 05:25:40;;;;;;;4.28;1.63;;;13.70;99.90;;;;;;5093209;28;20032;-80
2022/09/19 05:28:08;;;;;;;5.93;2.15;;;13.70;99.90;;;;;;5092761;28;20055;-80
2022/09/19 05:30:36;;;;;;;5.35;1.30;;;13.70;99.90;;;;;;5094059;28;20049;-80
2022/09/19 05:33:02;;;;;;;2.95;1.48;;;13.70;99.90;;;;;;5094207;28;20028;-80
2022/09/19 05:35:29;;;;;;;3.88;1.60;;;13.70;99.90;;;;;;5100347;28;20027;-81
2022/09/19 05:37:56;;;;;;;4.75;1.55;;;13.70;99.90;;;;;;5091010;28;20224;-80
2022/09/19 05:40:23;;;;;;;7.35;2.30;;;13.70;99.90;;;;;;5092311;28;20043;-81
2022/09/19 05:42:50;;;;;;;3.42;1.35;;;13.70;99.90;;;;;;5099280;28;21057;-80
2022/09/19 05:45:17;;;;;;;5.57;1.88;;;13.70;99.90;;;;;;5097141;28;20054;-81
2022/09/19 05:47:43;;;;;;;5.65;1.75;;;13.70;99.90;;;;;;5085411;28;20487;-81
2022/09/19 05:50:11;;;;;;;4.05;1.50;;;13.70;99.90;;;;;;5091497;28;20054;-81
2022/09/19 05:55:25;;;;;;;5.32;2.10;;;13.70;99.90;;;;;;5090451;28;20027;-82
2022/09/19 05:57:56;;;;;;;5.90;1.77;;;13.70;99.90;;;;;;5093480;28;20024;-81
2022/09/19 06:00:25;;;;;;;4.60;2.25;;;13.70;99.90;;;;;;5087572;28;20027;-80
2022/09/19 06:03:00;;;;;;;6.95;2.05;;;13.70;99.90;;;;;;5092925;28;20651;-82
2022/09/19 06:05:27;;;;;;;6.18;1.67;;;13.70;99.90;;;;;;5089912;28;20411;-82
2022/09/19 06:07:56;;;;;;;4.70;1.60;;;13.70;99.90;;;;;;5090128;28;20484;-81
2022/09/19 06:10:23;;;;;;;3.33;1.50;;;13.60;99.90;;;;;;5087819;28;20070;-81
2022/09/19 06:12:50;;;;;;;5.10;1.38;;;13.70;99.90;;;;;;5087861;28;20020;-81
2022/09/19 06:15:16;;;;;;;5.65;1.80;;;13.70;99.90;;;;;;5087627;28;20020;-81
2022/09/19 06:17:42;;;;;;;5.90;1.77;;;13.70;99.90;;;;;;5087899;28;20524;-81
2022/09/19 06:20:08;;;;;;;5.32;1.67;;;13.70;99.90;;;;;;5086829;28;20028;-80
2022/09/19 06:22:34;;;;;;;3.92;1.98;;;13.70;99.90;;;;;;5087845;28;20038;-80
2022/09/19 06:25:01;;;;;;;5.72;2.08;;;13.70;99.90;;;;;;5093470;28;20107;-81
2022/09/19 06:27:27;;;;;;;5.85;2.33;;;13.70;99.90;;;;;;5080860;28;20024;-81
2022/09/19 06:29:54;;;;;;;6.72;1.83;;;13.70;99.90;;;;;;5081565;28;20119;-82
2022/09/19 06:32:20;;;;;;;9.68;2.10;;;13.70;99.90;;;;;;5081194;28;20039;-81
2022/09/19 06:34:46;;;;;;;10.20;2.00;;;13.70;99.90;;;;;;5093840;28;20031;-81
2022/09/19 06:37:12;;;;;;;9.27;2.10;;;13.70;99.90;;;;;;5094030;28;20024;-81
2022/09/19 06:39:38;;;;;;;7.60;1.90;;;13.70;99.90;;;;;;5086401;28;20028;-82
2022/09/19 06:42:04;;;;;;;2.42;1.52;;;13.70;99.90;;;;;;5087304;28;20036;-82
2022/09/19 06:44:30;;;;;;;3.53;1.88;;;13.70;99.90;;;;;;5077343;28;20503;-82
2022/09/19 06:46:58;;;;;;;4.32;1.77;;;13.70;99.90;;;;;;5078120;28;20024;-81
2022/09/19 06:49:23;;;;;;;6.88;2.38;;;13.70;99.90;;;;;;5080729;28;20102;-82
2022/09/19 06:51:50;;;;;;;6.38;1.83;;;13.70;99.90;;;;;;5088280;28;20480;-81
2022/09/19 06:54:16;;;;;;;9.55;2.47;;;13.70;99.90;;;;;;5083700;28;20051;-82
2022/09/19 06:56:41;;;;;;;4.03;1.90;;;13.70;99.90;;;;;;5080656;28;20382;-80
2022/09/19 06:59:07;;;;;;;9.43;2.33;;;13.70;99.90;;;;;;5086580;28;20029;-82
2022/09/19 07:01:34;;;;;;;9.07;1.92;;;13.70;99.90;;;;;;5084142;28;20048;-82
2022/09/19 07:03:59;;;;;;;4.63;1.58;;;13.70;99.90;;;;;;5084027;28;20033;-82
2022/09/19 07:06:25;;;;;;;7.45;1.90;;;13.70;99.90;;;;;;5088949;28;20020;-82
2022/09/19 07:08:51;;;;;;;4.90;2.05;;;13.60;99.90;;;;;;5087825;28;20095;-82
2022/09/19 07:11:17;;;;;;;10.70;2.53;;;13.70;99.90;;;;;;5084618;28;20055;-82
2022/09/19 07:13:43;;;;;;;9.77;2.35;;;13.70;99.90;;;;;;5090145;28;20024;-81
2022/09/19 07:16:09;;;;;;;5.75;2.05;;;13.60;99.90;;;;;;5083764;28;20028;-82
2022/09/19 07:18:35;;;;;;;5.60;1.88;;;13.70;99.90;;;;;;5082393;28;20103;-81
2022/09/19 07:21:01;;;;;;;6.20;1.85;;;13.70;99.90;;;;;;5093300;28;20594;-81
2022/09/19 07:23:27;;;;;;;7.38;2.95;;;13.70;99.90;;;;;;5092562;28;20055;-80
2022/09/19 07:25:57;;;;;;;6.72;2.35;;;13.70;99.90;;;;;;5088362;28;20472;-82
2022/09/19 07:28:23;;;;;;;6.97;1.92;;;13.70;99.90;;;;;;5087672;28;20098;-82
2022/09/19 07:30:49;;;;;;;10.38;3.25;;;13.70;99.90;;;;;;5094707;28;20039;-82
2022/09/19 07:33:20;;;;;;;6.43;3.17;;;13.70;99.90;;;;;;5093533;28;20478;-82
2022/09/19 07:35:46;;;;;;;11.82;3.60;;;13.70;99.90;;;;;;5094812;28;20032;-81
2022/09/19 07:38:15;;;;;;;9.07;3.28;;;13.70;99.90;;;;;;5082384;28;20268;-82
2022/09/19 07:40:42;;;;;;;12.15;2.72;;;13.70;99.90;;;;;;5090602;28;20029;-81
2022/09/19 07:43:13;;;;;;;8.32;2.95;;;13.70;99.90;;;;;;5094391;28;20384;-81
2022/09/19 07:45:43;;;;;;;7.90;3.05;;;13.70;99.90;;;;;;5088659;28;20056;-82
2022/09/19 07:48:09;;;;;;;10.27;2.25;;;13.70;99.90;;;;;;5090989;28;20028;-80
2022/09/19 07:50:35;;;;;;;9.07;2.60;;;13.70;99.90;;;;;;5095088;28;20031;-80
2022/09/19 07:53:07;;;;;;;4.97;2.53;;;13.70;99.90;;;;;;5093666;28;20430;-81
2022/09/19 07:55:35;;;;;;;6.47;2.55;;;13.70;99.90;;;;;;5089332;28;20032;-81
2022/09/19 07:58:03;;;;;;;10.60;3.33;;;13.70;99.90;;;;;;5085624;28;20472;-81
2022/09/19 08:00:30;;;;;;;11.05;2.83;;;13.70;99.90;;;;;;5086041;28;20024;-80
2022/09/19 08:02:57;;;;;;;12.25;2.88;;;13.70;99.90;;;;;;5087265;28;20028;-80
2022/09/19 08:05:25;;;;;;;10.15;3.03;;;13.70;99.90;;;;;;5091220;28;20081;-79
2022/09/19 08:07:51;;;;;;;11.85;2.90;;;13.60;99.90;;;;;;5089828;28;20021;-81
2022/09/19 08:10:18;;;;;;;6.53;2.53;;;13.70;99.90;;;;;;5086098;28;20032;-81
2022/09/19 08:12:44;;;;;;;7.85;2.53;;;13.70;99.90;;;;;;5087822;28;20413;-81
2022/09/19 08:15:15;;;;;;;4.22;1.92;;;13.70;99.90;;;;;;5091725;28;20024;-80
2022/09/19 08:17:45;;;;;;;5.75;2.63;;;13.70;99.90;;;;;;5089228;28;20021;-80
2022/09/19 08:20:12;;;;;;;7.07;2.20;;;13.70;99.90;;;;;;5081646;28;20032;-80
2022/09/19 08:22:37;;;;;;;6.63;2.33;;;13.70;99.90;;;;;;5093693;28;20488;-81
2022/09/19 08:25:03;;;;;;;8.98;3.13;;;13.70;99.90;;;;;;5094397;28;20024;-80
2022/09/19 08:27:30;;;;;;;6.53;2.70;;;13.70;99.90;;;;;;5087803;28;20020;-80
2022/09/19 08:29:57;;;;;;;7.68;3.47;;;13.70;99.90;;;;;;5083946;28;20051;-80
2022/09/19 08:32:23;;;;;;;7.13;2.40;;;13.70;99.90;;;;;;5085204;28;20031;-80
2022/09/19 08:34:49;;;;;;;8.27;2.10;;;13.70;99.90;;;;;;5094173;28;20028;-80
2022/09/19 08:37:15;;;;;;;6.50;2.15;;;13.70;99.90;;;;;;5086135;28;20020;-80
2022/09/19 08:40:15;;;;;;;8.48;2.08;;;13.70;99.90;;;;;;5084496;28;20029;-80
2022/09/19 08:42:33;;;;;;;10.45;2.88;;;13.70;99.90;;;;;;5088059;28;20055;-80
2022/09/19 08:45:17;;;;;;;10.30;3.15;;;13.70;99.90;;;;;;5084273;28;20028;-80
2022/09/19 08:47:44;;;;;;;;;;;13.70;99.90;;;;;;5094452;28;20441;-79
2022/09/19 08:50:23;;;;;;;6.40;2.45;;;13.70;99.90;;;;;;5090342;28;19958;-80
2022/09/19 08:52:55;;;;;;;9.27;2.78;;;13.70;99.90;;;;;;5094528;28;20119;-80
2022/09/19 08:55:24;;;;;;;8.10;2.70;;;13.70;99.90;;;;;;5089430;28;20383;-80
2022/09/19 08:58:19;;;;;;;11.10;2.97;;;13.70;99.90;;;;;;5092925;28;20058;-80
2022/09/19 09:00:46;;;;;;;13.52;2.20;;;13.70;99.90;;;;;;5079663;28;20033;-80
2022/09/19 09:03:20;;;;;;;4.55;2.72;;;13.70;99.90;;;;;;5084604;28;20547;-80
2022/09/19 09:06:04;;;;;;;11.70;2.70;;;13.80;99.90;;;;;;5088899;28;20031;-79
2022/09/19 09:08:42;;;;;;;10.50;2.97;;;13.70;99.90;;;;;;5110650;28;20032;-79
2022/09/19 09:11:33;;;;;;;7.70;2.53;;;13.80;99.90;;;;;;5086981;28;20048;-79
2022/09/19 09:14:20;;;;;;;9.45;3.45;;;13.70;99.90;;;;;;5090280;28;20016;-80
2022/09/19 09:17:01;;;;;;;6.97;2.25;;;13.80;99.90;;;;;;5091449;28;20434;-80
2022/09/19 09:19:59;;;;;;;10.50;2.55;;;13.80;99.90;;;;;;5093875;28;20442;-80
2022/09/19 09:22:37;;;;;;;7.28;3.28;;;13.80;99.90;;;;;;5085887;28;20044;-80
2022/09/19 09:25:29;;;;;;;9.25;2.20;;;13.80;99.90;;;;;;5085886;28;20407;-80
2022/09/19 09:28:26;;;;;;;5.35;2.28;;;13.80;99.90;;;;;;5090039;28;20028;-79
2022/09/19 09:30:57;;;;;;;11.05;2.10;;;13.80;99.90;;;;;;5085531;28;20031;-80
2022/09/19 09:33:33;;;;;;;8.18;2.63;;;13.80;99.90;;;;;;5088022;28;20079;-80
2022/09/19 09:36:09;;;;;;;22.38;2.58;;;13.80;99.90;;;;;;5093008;28;20016;-80
2022/09/19 09:38:47;;;;;;;14.50;2.60;;;13.80;99.90;;;;;;5087142;28;20119;-79
2022/09/19 09:44:17;;;;;;;11.15;2.42;;;13.80;99.90;;;;;;5089177;28;20169;-79
2022/09/19 09:47:10;;;;;;;5.88;2.65;;;13.80;99.90;;;;;;5082741;28;20039;-79
2022/09/19 09:49:36;;;;;;;12.57;2.08;;;13.80;99.90;;;;;;5086384;28;20020;-79
2022/09/19 09:52:24;;;;;;;7.60;2.20;;;13.80;99.90;;;;;;5087724;28;20031;-78
2022/09/19 09:58:15;;;;;;;8.40;2.00;;;13.80;99.90;;;;;;5093901;28;20051;-80
2022/09/19 10:03:42;;;;;;;13.02;2.85;;;13.80;99.90;;;;;;5088327;28;20043;-81
2022/09/19 10:06:17;;;;;;;6.20;2.20;;;13.80;99.90;;;;;;5083022;28;20036;-81
2022/09/19 10:09:20;;;;;;;11.77;3.15;;;13.80;99.90;;;;;;5093685;28;20036;-82
2022/09/19 10:12:06;;;;;;;6.60;2.15;;;13.80;99.90;;;;;;5094439;28;20023;-80
2022/09/19 10:14:35;;;;;;;10.27;2.67;;;13.80;99.90;;;;;;5102498;28;20388;-81
2022/09/19 10:17:04;;;;;;;6.20;2.10;;;13.80;99.90;;;;;;5098086;28;20055;-80
2022/09/19 10:19:39;;;;;;;6.00;1.92;;;13.80;99.90;;;;;;5108380;28;20046;-81
2022/09/19 10:22:15;;;;;;;5.28;2.17;;;13.80;99.90;;;;;;5102332;28;20040;-81
2022/09/19 10:24:45;;;;;;;5.50;1.85;;;13.80;99.90;;;;;;5098261;28;20028;-81
2022/09/19 10:27:23;;;;;;;8.30;2.20;;;13.80;99.90;;;;;;5095169;28;20027;-80
2022/09/19 10:29:57;;;;;;;5.32;1.90;;;13.80;99.90;;;;;;5091145;28;20024;-80
2022/09/19 10:32:39;;;;;;;7.97;2.50;;;13.80;99.90;;;;;;5086470;28;20056;-80
2022/09/19 10:35:32;;;;;;;11.32;2.65;;;13.80;99.90;;;;;;5083698;28;20078;-79
2022/09/19 10:38:01;;;;;;;6.10;2.63;;;13.90;99.90;;;;;;5078375;28;20064;-79
2022/09/19 10:40:31;;;;;;;10.07;2.08;;;13.90;99.90;;;;;;5089111;28;20032;-80
2022/09/19 10:43:01;;;;;;;10.48;2.70;;;13.90;99.90;;;;;;5089365;28;20039;-79
2022/09/19 10:45:30;;;;;;;14.32;2.75;;;13.90;99.90;;;;;;5096131;28;20023;-80
2022/09/19 10:48:09;;;;;;;6.32;2.58;;;13.90;99.90;;;;;;5095562;28;20023;-79
2022/09/19 10:50:45;;;;;;;11.50;2.35;;;13.90;99.90;;;;;;5093518;28;20032;-79
2022/09/19 10:53:22;;;;;;;8.48;2.33;;;13.90;99.90;;;;;;5088123;28;20500;-80
2022/09/19 10:55:49;;;;;;;11.23;2.30;;;13.90;99.90;;;;;;5090480;28;20040;-80
2022/09/19 10:58:26;;;;;;;7.38;3.08;;;13.90;99.90;;;;;;5095950;28;20027;-79
2022/09/19 11:01:01;;;;;;;5.68;2.58;;;13.90;99.90;;;;;;5092881;28;20400;-79
2022/09/19 11:03:32;;;;;;;5.28;2.45;;;13.90;99.90;;;;;;5090153;28;20031;-79
2022/09/19 11:06:18;;;;;;;6.47;2.97;;;13.90;99.90;;;;;;5090544;28;20115;-79
2022/09/19 11:08:46;;;;;;;10.88;3.47;;;13.90;99.90;;;;;;5087818;28;20046;-79
2022/09/19 11:11:32;;;;;;;7.00;2.85;;;14.00;99.90;;;;;;5087082;28;20021;-79
2022/09/19 11:14:22;;;;;;;6.40;2.88;;;14.00;99.90;;;;;;5090021;28;20025;-79
2022/09/19 11:17:22;;;;;;;7.13;2.67;;;14.00;99.90;;;;;;5097453;28;20028;-80
2022/09/19 11:20:37;;;;;;;3.95;2.72;;;14.00;99.90;;;;;;5096644;28;20029;-81
2022/09/19 11:23:28;;;;;;;5.72;2.72;;;14.00;99.90;;;;;;5098683;28;20040;-80
2022/09/19 11:26:00;;;;;;;7.43;2.80;;;14.00;99.90;;;;;;5086210;28;20039;-82
2022/09/19 11:28:45;;;;;;;5.70;2.38;;;14.00;99.90;;;;;;5089654;28;20039;-82
2022/09/19 11:31:32;;;;;;;14.25;2.92;;;14.00;99.90;;;;;;5088666;28;20388;-82
2022/09/19 11:34:11;;;;;;;14.38;3.20;;;13.90;99.90;;;;;;5103539;28;20484;-80
2022/09/19 11:37:05;;;;;;;8.98;3.38;;;13.90;99.90;;;;;;5088184;28;20020;-81
2022/09/19 11:40:15;;;;;;;11.00;4.00;;;13.90;99.90;;;;;;5090140;28;20392;-81
2022/09/19 11:43:11;;;;;;;7.95;2.75;;;13.90;99.90;;;;;;5084287;28;20406;-79
2022/09/19 11:46:12;;;;;;;4.65;2.40;;;13.90;99.90;;;;;;5090810;28;20016;-81
2022/09/19 11:49:00;;;;;;;8.18;3.15;;;13.80;99.90;;;;;;5079672;28;20035;-79
2022/09/19 11:51:40;;;;;;;5.47;2.45;;;13.80;99.90;;;;;;5089515;28;20031;-80
2022/09/19 11:54:34;;;;;;;4.88;2.20;;;13.90;99.90;;;;;;5086689;28;20400;-80
2022/09/19 11:57:33;;;;;;;7.35;2.13;;;13.80;99.90;;;;;;5085315;28;20480;-80
2022/09/19 12:00:28;;;;;;;9.07;2.20;;;13.80;99.90;;;;;;5069072;28;20044;-81
2022/09/19 12:03:03;;;;;;;7.38;2.13;;;13.80;99.90;;;;;;5063820;28;20028;-81
2022/09/19 12:05:35;;;;;;;3.45;2.30;;;13.80;99.90;;;;;;5099360;28;20020;-81
2022/09/19 12:08:30;;;;;;;6.03;2.08;;;13.80;99.90;;;;;;5080195;28;20024;-81
2022/09/19 12:11:09;;;;;;;8.95;2.30;;;13.90;99.90;;;;;;5079997;28;20085;-82
2022/09/19 12:14:09;;;;;;;5.13;2.40;;;13.90;99.90;;;;;;5082989;28;20391;-80
2022/09/19 12:16:50;;;;;;;3.55;2.15;;;13.90;99.90;;;;;;5068960;28;20057;-80
2022/09/19 12:19:45;;;;;;;3.13;1.80;;;13.90;99.90;;;;;;5085649;28;20031;-80
2022/09/19 12:22:19;;;;;;;5.68;2.50;;;13.90;99.90;;;;;;5085094;28;20035;-81
2022/09/19 12:24:53;;;;;;;;;;;13.90;99.90;;;;;;5088098;28;20028;-81
2022/09/19 12:27:43;;;;;;;4.10;2.08;;;13.90;99.90;;;;;;5088878;28;19912;-80
2022/09/19 12:30:15;;;;;;;6.35;2.40;;;13.90;99.90;;;;;;5095903;28;20036;-81
2022/09/19 12:32:56;;;;;;;6.05;2.40;;;13.90;99.90;;;;;;5095698;28;20443;-81
2022/09/19 12:35:49;;;;;;;9.02;2.22;;;13.90;99.90;;;;;;5090304;28;20111;-81
2022/09/19 12:38:50;;;;;;;5.55;2.58;;;13.90;99.90;;;;;;5091679;28;20039;-82
2022/09/19 12:41:29;;;;;;;4.32;2.20;;;13.90;99.90;;;;;;5088847;28;20056;-82
2022/09/19 12:44:11;;;;;;;5.38;2.00;;;13.90;99.90;;;;;;5107828;28;20088;-81
2022/09/19 12:46:58;;;;;;;11.43;2.83;;;13.90;99.90;;;;;;5092857;28;20021;-81
2022/09/19 12:50:13;;;;;;;3.17;2.33;;;13.90;99.90;;;;;;5093115;28;20164;-80
2022/09/19 12:52:47;;;;;;;6.82;2.15;;;13.90;99.90;;;;;;5073927;28;20028;-81
2022/09/19 12:55:13;;;;;;;4.55;2.08;;;13.90;99.90;;;;;;5091110;28;20036;-80
2022/09/19 12:57:48;;;;;;;3.05;1.98;;;13.90;99.90;;;;;;5091606;28;20029;-81
2022/09/19 13:00:14;;;;;;;6.35;2.13;;;13.90;99.90;;;;;;5093647;28;20101;-81
2022/09/19 13:02:50;;;;;;;4.85;2.63;;;14.00;99.90;;;;;;5096292;28;20704;-82
2022/09/19 13:05:33;;;;;;;4.40;2.13;;;14.00;99.90;;;;;;5086549;28;20035;-81
2022/09/19 13:08:02;;;;;;;10.13;2.60;;;14.00;99.90;;;;;;5083626;28;20024;-82
2022/09/19 13:10:38;;;;;;;4.65;2.22;;;14.10;99.90;;;;;;5091050;28;20122;-80
2022/09/19 13:13:18;;;;;;;3.63;1.70;;;14.10;99.90;;;;;;5092925;28;20031;-81
2022/09/19 13:15:54;;;;;;;5.82;2.03;;;14.00;99.90;;;;;;5089882;28;20025;-82
2022/09/19 13:24:37;;;;;;;4.18;1.75;;;14.00;99.90;;;;;;5088563;28;20038;-82
2022/09/19 13:27:04;;;;;;;5.53;1.60;;;14.00;99.90;;;;;;5086152;28;20030;-83
2022/09/19 13:29:30;;;;;;;4.32;1.50;;;14.00;99.90;;;;;;5088612;28;20050;-81
2022/09/19 13:32:01;;;;;;;6.57;1.75;;;14.00;99.90;;;;;;5085589;28;20024;-80
2022/09/19 13:34:36;;;;;;;2.85;1.83;;;14.00;99.90;;;;;;5101547;28;20031;-80
2022/09/19 13:37:34;;;;;;;2.92;1.45;;;13.90;99.90;;;;;;5089187;28;20120;-81
2022/09/19 13:40:15;;;;;;;3.30;1.42;;;13.90;99.90;;;;;;5090271;28;20044;-81